createdAt,value
2022-12-11T00:01:17.792Z,52.97
2022-12-11T00:05:20.763Z,53.33
2022-12-11T00:09:22.614Z,51.00
2022-12-11T00:13:24.563Z,48.35
2022-12-11T00:17:26.284Z,51.38
2022-12-11T00:21:28.222Z,50.65
2022-12-11T00:25:29.834Z,46.92
2022-12-11T00:29:31.753Z,52.05
2022-12-11T00:33:34.571Z,56.15
2022-12-11T00:37:36.541Z,52.97
2022-12-11T00:41:38.187Z,50.17
2022-12-11T00:45:46.750Z,49.53
2022-12-11T00:49:50.141Z,51.63
2022-12-11T00:53:52.646Z,50.97
2022-12-11T00:57:55.530Z,50.03
2022-12-11T01:01:57.257Z,51.92
2022-12-11T01:05:59.164Z,52.90
2022-12-11T01:10:19.608Z,55.13
2022-12-11T01:14:21.524Z,52.17
2022-12-11T01:18:23.597Z,50.72
2022-12-11T01:22:25.655Z,50.90
2022-12-11T01:26:27.355Z,48.60
2022-12-11T01:30:29.270Z,47.60
2022-12-11T01:34:32.254Z,52.00
2022-12-11T01:38:34.201Z,49.15
2022-12-11T01:42:36.077Z,45.25
2022-12-11T01:46:38.679Z,49.55
2022-12-11T01:51:02.510Z,51.15
2022-12-11T01:55:04.824Z,50.20
2022-12-11T01:59:09.420Z,47.45
2022-12-11T02:03:11.383Z,50.05
2022-12-11T02:07:13.068Z,47.53
2022-12-11T02:11:24.529Z,51.55
2022-12-11T02:15:44.485Z,48.78
2022-12-11T02:20:06.849Z,51.33
2022-12-11T02:24:27.176Z,50.88
2022-12-11T02:28:33.577Z,50.63
2022-12-11T02:32:40.934Z,49.15
2022-12-11T02:36:51.314Z,46.25
2022-12-11T02:40:55.982Z,47.70
2022-12-11T02:45:00.644Z,49.08
2022-12-11T02:49:05.924Z,50.22
2022-12-11T02:53:10.893Z,52.78
2022-12-11T02:57:37.775Z,48.83
2022-12-11T03:01:39.763Z,47.08
2022-12-11T03:05:42.473Z,42.63
2022-12-11T03:09:47.260Z,42.35
2022-12-11T03:13:49.113Z,45.30
2022-12-11T03:18:16.899Z,44.70
2022-12-11T03:22:26.898Z,41.70
2022-12-11T03:26:32.928Z,44.72
2022-12-11T03:30:37.019Z,40.97
2022-12-11T03:34:58.455Z,38.33
2022-12-11T03:39:09.466Z,37.35
2022-12-11T03:43:11.736Z,36.92
2022-12-11T03:47:18.205Z,35.45
2022-12-11T03:51:21.067Z,33.42
2022-12-11T03:55:24.704Z,35.92
2022-12-11T03:59:26.286Z,34.63
2022-12-11T04:03:28.274Z,34.35
2022-12-11T04:07:31.241Z,31.67
2022-12-11T04:11:35.927Z,35.33
2022-12-11T04:15:38.889Z,35.13
2022-12-11T04:19:59.574Z,36.45
2022-12-11T04:24:16.113Z,34.85
2022-12-11T04:28:18.113Z,33.67
2022-12-11T04:32:19.780Z,37.28
2022-12-11T04:36:21.649Z,38.10
2022-12-11T04:40:23.408Z,36.83
2022-12-11T04:44:25.313Z,37.63
2022-12-11T04:48:26.931Z,40.33
2022-12-11T04:52:28.817Z,40.83
2022-12-11T04:56:30.436Z,40.47
2022-12-11T05:00:32.441Z,39.92
2022-12-11T05:04:35.345Z,39.65
2022-12-11T05:08:38.593Z,40.22
2022-12-11T05:12:40.305Z,40.60
2022-12-11T05:16:42.242Z,37.88
2022-12-11T05:20:43.874Z,39.15
2022-12-11T05:24:45.984Z,40.53
2022-12-11T05:28:51.895Z,37.22
2022-12-11T05:32:53.751Z,35.35
2022-12-11T05:36:55.361Z,33.72
2022-12-11T05:41:07.659Z,34.58
2022-12-11T05:45:10.102Z,32.75
2022-12-11T05:49:12.319Z,34.83
2022-12-11T05:53:13.939Z,32.03
2022-12-11T05:57:16.117Z,29.30
2022-12-11T06:01:21.251Z,30.25
2022-12-11T06:05:23.216Z,29.38
2022-12-11T06:09:25.175Z,30.20
2022-12-11T06:13:27.036Z,31.08
2022-12-11T06:17:28.966Z,31.60
2022-12-11T06:21:32.623Z,27.02
2022-12-11T06:25:34.663Z,27.02
2022-12-11T06:29:36.532Z,25.10
2022-12-11T06:33:38.694Z,27.73
2022-12-11T06:37:40.665Z,25.10
2022-12-11T06:41:42.566Z,25.65
2022-12-11T06:45:44.250Z,27.55
2022-12-11T06:49:46.130Z,26.98
2022-12-11T06:53:53.031Z,23.55
2022-12-11T06:57:54.692Z,22.77
2022-12-11T07:01:56.791Z,22.20
2022-12-11T07:06:02.507Z,24.45
2022-12-11T07:10:08.408Z,23.35
2022-12-11T07:14:10.706Z,22.10
2022-12-11T07:18:12.566Z,23.65
2022-12-11T07:22:14.438Z,21.08
2022-12-11T07:26:18.798Z,22.50
2022-12-11T07:30:20.378Z,23.30
2022-12-11T07:34:22.395Z,21.42
2022-12-11T07:38:24.605Z,23.55
2022-12-11T07:42:26.274Z,24.45
2022-12-11T07:46:31.249Z,23.33
2022-12-11T07:50:38.124Z,24.60
2022-12-11T07:54:41.482Z,26.23
2022-12-11T07:58:43.993Z,24.08
2022-12-11T08:02:45.674Z,25.08
2022-12-11T08:06:47.771Z,27.63
2022-12-11T08:10:49.781Z,25.75
2022-12-11T08:14:51.440Z,28.83
2022-12-11T08:18:53.443Z,26.10
2022-12-11T08:22:59.217Z,25.42
2022-12-11T08:27:01.372Z,29.45
2022-12-11T08:31:08.529Z,27.98
2022-12-11T08:35:10.436Z,28.00
2022-12-11T08:39:12.627Z,30.58
2022-12-11T08:43:14.621Z,29.58
2022-12-11T08:47:16.314Z,29.10
2022-12-11T08:51:22.915Z,26.15
2022-12-11T08:55:24.753Z,28.75
2022-12-11T08:59:26.667Z,25.13
2022-12-11T09:03:28.346Z,27.55
2022-12-11T09:07:30.216Z,28.52
2022-12-11T09:11:35.551Z,25.15
2022-12-11T09:15:40.859Z,27.30
2022-12-11T09:19:42.892Z,23.38
2022-12-11T09:23:44.863Z,25.88
2022-12-11T09:27:46.531Z,26.83
2022-12-11T09:31:49.504Z,25.33
2022-12-11T09:36:01.267Z,27.02
2022-12-11T09:40:10.040Z,25.20
2022-12-11T09:44:20.681Z,24.42
2022-12-11T09:48:25.046Z,27.05
2022-12-11T09:52:34.558Z,26.55
2022-12-11T09:56:45.696Z,25.02
2022-12-11T10:00:54.009Z,24.13
2022-12-11T10:09:24.289Z,25.85
2022-12-11T10:13:40.887Z,27.55
2022-12-11T10:17:44.673Z,24.25
2022-12-11T10:21:47.200Z,25.08
2022-12-11T10:26:03.977Z,24.45
2022-12-11T10:30:27.536Z,26.23
2022-12-11T10:34:35.724Z,25.50
2022-12-11T10:38:42.376Z,25.70
2022-12-11T10:42:53.380Z,25.40
2022-12-11T10:47:12.554Z,26.98
2022-12-11T10:51:15.279Z,24.95
2022-12-11T10:55:28.441Z,24.27
2022-12-11T10:59:42.779Z,23.30
2022-12-11T11:04:07.166Z,23.88
2022-12-11T11:08:16.828Z,21.23
2022-12-11T11:12:24.639Z,22.45
2022-12-11T11:16:26.576Z,22.80
2022-12-11T11:20:31.518Z,20.83
2022-12-11T11:24:44.367Z,20.58
2022-12-11T11:28:52.461Z,20.73
2022-12-11T11:32:57.974Z,21.27
2022-12-11T11:37:05.517Z,19.27
2022-12-11T11:41:19.934Z,21.45
2022-12-11T11:45:29.255Z,20.48
2022-12-11T11:49:43.281Z,20.48
2022-12-11T11:53:50.819Z,20.38
2022-12-11T11:58:11.641Z,21.08
2022-12-11T12:02:18.908Z,22.00
2022-12-11T12:06:37.039Z,21.38
2022-12-11T12:10:50.802Z,20.20
2022-12-11T12:15:01.807Z,21.70
2022-12-11T12:19:42.610Z,19.73
2022-12-11T12:24:04.331Z,21.77
2022-12-11T12:28:20.499Z,20.58
2022-12-11T12:32:40.301Z,19.52
2022-12-11T12:37:00.353Z,18.85
2022-12-11T12:41:19.523Z,19.92
2022-12-11T12:45:32.028Z,23.05
2022-12-11T12:49:42.647Z,25.27
2022-12-11T12:53:53.487Z,21.20
2022-12-11T12:58:04.272Z,23.45
2022-12-11T13:02:14.882Z,24.45
2022-12-11T13:06:28.312Z,24.05
2022-12-11T13:10:34.172Z,27.23
2022-12-11T13:14:35.850Z,24.02
2022-12-11T13:18:39.630Z,25.52
2022-12-11T13:23:00.265Z,25.58
2022-12-11T13:27:22.522Z,24.08
2022-12-11T13:31:38.910Z,24.20
2022-12-11T13:35:40.769Z,23.77
2022-12-11T13:39:46.946Z,24.80
2022-12-11T13:43:50.516Z,23.73
2022-12-11T13:47:52.567Z,22.98
2022-12-11T13:51:57.608Z,22.67
2022-12-11T13:56:01.058Z,23.58
2022-12-11T14:00:02.849Z,22.60
2022-12-11T14:04:15.984Z,28.23
2022-12-11T14:08:22.914Z,21.98
2022-12-11T14:12:24.934Z,21.30
2022-12-11T14:16:27.789Z,19.63
2022-12-11T14:20:32.852Z,24.10
2022-12-11T14:24:34.556Z,25.00
2022-12-11T14:28:41.502Z,23.33
2022-12-11T14:32:45.134Z,23.35
2022-12-11T14:36:48.922Z,23.77
2022-12-11T14:40:56.303Z,22.55
2022-12-11T14:45:19.241Z,24.02
2022-12-11T14:49:56.099Z,21.48
2022-12-11T14:53:58.692Z,23.60
2022-12-11T14:58:04.394Z,22.40
2022-12-11T15:02:23.747Z,21.80
2022-12-11T15:06:31.229Z,20.75
2022-12-11T15:10:41.191Z,19.15
2022-12-11T15:14:51.427Z,18.13
2022-12-11T15:18:55.119Z,20.80
2022-12-11T15:23:00.254Z,21.10
2022-12-11T15:27:02.280Z,23.02
2022-12-11T15:31:25.315Z,22.42
2022-12-11T15:35:27.983Z,25.38
2022-12-11T15:39:29.591Z,24.00
2022-12-11T15:43:35.983Z,27.77
2022-12-11T15:47:37.697Z,25.33
2022-12-11T15:51:43.208Z,24.02
2022-12-11T15:55:45.572Z,22.55
2022-12-11T15:59:49.587Z,25.40
2022-12-11T16:03:51.247Z,35.35
2022-12-11T16:07:54.709Z,29.23
2022-12-11T16:11:56.445Z,23.20
2022-12-11T16:15:58.509Z,23.38
2022-12-11T16:20:00.656Z,22.90
2022-12-11T16:24:02.579Z,23.17
2022-12-11T16:28:06.458Z,21.05
2022-12-11T16:32:08.653Z,25.27
2022-12-11T16:36:16.268Z,24.25
2022-12-11T16:40:18.924Z,23.10
2022-12-11T16:44:23.373Z,24.02
2022-12-11T16:48:25.357Z,23.92
2022-12-11T16:52:27.641Z,23.13
2022-12-11T16:56:29.335Z,23.15
2022-12-11T17:00:31.341Z,20.05
2022-12-11T17:04:32.994Z,20.38
2022-12-11T17:08:35.023Z,20.38
2022-12-11T17:12:36.714Z,21.60
2022-12-11T17:16:38.842Z,22.95
2022-12-11T17:20:42.231Z,20.85
2022-12-11T17:24:44.262Z,20.45
2022-12-11T17:28:46.227Z,20.65
2022-12-11T17:32:49.081Z,20.15
2022-12-11T17:36:51.391Z,21.65
2022-12-11T17:40:53.420Z,22.00
2022-12-11T17:44:55.108Z,21.45
2022-12-11T17:49:00.007Z,22.20
2022-12-11T17:53:01.654Z,22.33
2022-12-11T17:57:03.590Z,24.25
2022-12-11T18:01:12.351Z,22.48
2022-12-11T18:05:14.227Z,21.48
2022-12-11T18:09:16.605Z,22.73
2022-12-11T18:13:19.204Z,21.83
2022-12-11T18:17:20.830Z,22.38
2022-12-11T18:21:26.623Z,20.23
2022-12-11T18:25:28.382Z,22.02
2022-12-11T18:29:30.443Z,22.38
2022-12-11T18:33:32.366Z,22.80
2022-12-11T18:37:34.249Z,23.25
2022-12-11T18:41:36.301Z,21.50
2022-12-11T18:45:42.855Z,19.55
2022-12-11T18:49:44.630Z,18.35
2022-12-11T18:53:46.511Z,20.45
2022-12-11T18:57:48.207Z,19.17
2022-12-11T19:01:50.178Z,20.02
2022-12-11T19:05:51.897Z,21.80
2022-12-11T19:09:53.786Z,22.52
2022-12-11T19:13:56.702Z,18.58
2022-12-11T19:17:58.612Z,21.48
2022-12-11T19:22:00.568Z,23.05
2022-12-11T19:26:02.547Z,24.75
2022-12-11T19:30:04.962Z,22.67
2022-12-11T19:34:06.922Z,23.75
2022-12-11T19:38:08.953Z,26.45
2022-12-11T19:42:10.922Z,25.83
2022-12-11T19:46:14.139Z,25.33
2022-12-11T19:50:16.039Z,26.20
2022-12-11T19:54:18.142Z,29.30
2022-12-11T19:58:20.194Z,27.67
2022-12-11T20:02:22.291Z,30.33
2022-12-11T20:06:24.599Z,32.80
2022-12-11T20:10:27.384Z,27.73
2022-12-11T20:14:29.426Z,28.73
2022-12-11T20:18:31.349Z,30.27
2022-12-11T20:22:32.976Z,27.83
2022-12-11T20:26:36.866Z,27.40
2022-12-11T20:30:38.529Z,25.60
2022-12-11T20:34:41.189Z,22.52
2022-12-11T20:38:43.866Z,23.38
2022-12-11T20:42:45.535Z,23.45
2022-12-11T20:46:47.478Z,23.08
2022-12-11T20:50:49.294Z,23.83
2022-12-11T20:54:51.470Z,22.02
2022-12-11T20:58:53.931Z,23.02
2022-12-11T21:02:57.231Z,22.15
2022-12-11T21:07:00.731Z,20.67
2022-12-11T21:11:05.751Z,21.52
2022-12-11T21:15:08.170Z,21.45
2022-12-11T21:19:16.687Z,21.98
2022-12-11T21:23:18.807Z,19.30
2022-12-11T21:27:23.516Z,19.35
2022-12-11T21:31:25.964Z,20.13
2022-12-11T21:35:27.694Z,17.70
2022-12-11T21:39:31.602Z,18.75
2022-12-11T21:43:35.656Z,18.65
2022-12-11T21:47:37.268Z,19.05
2022-12-11T21:51:46.821Z,20.77
2022-12-11T21:55:49.320Z,16.83
2022-12-11T21:59:51.394Z,20.27
2022-12-11T22:03:53.363Z,19.98
2022-12-11T22:07:55.368Z,23.15
2022-12-11T22:11:58.791Z,24.02
2022-12-11T22:16:00.923Z,21.98
2022-12-11T22:20:05.181Z,25.02
2022-12-11T22:24:07.409Z,24.73
2022-12-11T22:28:09.025Z,25.25
2022-12-11T22:32:11.077Z,24.08
2022-12-11T22:36:13.050Z,24.20
2022-12-11T22:40:15.446Z,23.38
2022-12-11T22:44:19.700Z,24.80
2022-12-11T22:48:21.419Z,21.73
2022-12-11T22:52:23.354Z,24.42
2022-12-11T22:56:25.349Z,24.38
2022-12-11T23:00:27.225Z,24.80
2022-12-11T23:04:28.877Z,25.20
2022-12-11T23:08:31.121Z,22.70
2022-12-11T23:12:32.872Z,25.45
2022-12-11T23:16:35.151Z,26.52
2022-12-11T23:20:36.860Z,24.42
2022-12-11T23:24:38.789Z,25.73
2022-12-11T23:28:41.469Z,25.63
2022-12-11T23:32:43.238Z,25.85
2022-12-11T23:36:45.197Z,30.50
2022-12-11T23:40:47.039Z,29.33
2022-12-11T23:44:49.022Z,34.22
2022-12-11T23:48:52.189Z,25.08
2022-12-11T23:52:54.276Z,27.77
2022-12-11T23:56:56.019Z,25.50
